sensor_id;sensor_type;location;lat;lon;timestamp;P1;durP1;ratioP1;P2;durP2;ratioP2
30850;SDS011;17567;48.382;9.102;2023-10-08T16:19:18;15.43;;;3.90;;
30850;SDS011;17567;48.382;9.102;2023-10-08T16:24:19;15.38;;;3.92;;
30850;SDS011;17567;48.382;9.102;2023-10-08T16:29:21;12.98;;;3.70;;
30850;SDS011;17567;48.382;9.102;2023-10-08T16:34:22;16.25;;;3.80;;
30850;SDS011;17567;48.382;9.102;2023-10-08T16:39:23;11.55;;;3.95;;
30850;SDS011;17567;48.382;9.102;2023-10-08T16:44:24;16.52;;;3.80;;
30850;SDS011;17567;48.382;9.102;2023-10-08T16:49:26;9.02;;;3.63;;
30850;SDS011;17567;48.382;9.102;2023-10-08T16:54:29;16.38;;;3.78;;
30850;SDS011;17567;48.382;9.102;2023-10-08T16:59:30;11.70;;;3.60;;
30850;SDS011;17567;48.382;9.102;2023-10-08T17:04:31;10.60;;;4.15;;
30850;SDS011;17567;48.382;9.102;2023-10-08T17:09:32;12.32;;;4.10;;
30850;SDS011;17567;48.382;9.102;2023-10-08T17:14:33;15.57;;;4.70;;
30850;SDS011;17567;48.382;9.102;2023-10-08T17:19:34;22.60;;;5.32;;
30850;SDS011;17567;48.382;9.102;2023-10-08T17:24:35;18.80;;;4.65;;
30850;SDS011;17567;48.382;9.102;2023-10-08T17:29:35;16.73;;;4.00;;
30850;SDS011;17567;48.382;9.102;2023-10-08T17:34:36;16.20;;;4.10;;
30850;SDS011;17567;48.382;9.102;2023-10-08T17:39:39;13.68;;;4.20;;
30850;SDS011;17567;48.382;9.102;2023-10-08T17:44:40;15.93;;;4.28;;
30850;SDS011;17567;48.382;9.102;2023-10-08T17:49:41;16.92;;;4.38;;
30850;SDS011;17567;48.382;9.102;2023-10-08T17:54:42;21.30;;;4.50;;
30850;SDS011;17567;48.382;9.102;2023-10-08T17:59:43;21.92;;;5.68;;
30850;SDS011;17567;48.382;9.102;2023-10-08T18:04:44;36.90;;;14.97;;
30850;SDS011;17567;48.382;9.102;2023-10-08T18:09:47;31.83;;;9.80;;
30850;SDS011;17567;48.382;9.102;2023-10-08T18:14:48;18.13;;;5.33;;
30850;SDS011;17567;48.382;9.102;2023-10-08T18:19:50;15.17;;;4.47;;
30850;SDS011;17567;48.382;9.102;2023-10-08T18:24:53;24.00;;;6.47;;
30850;SDS011;17567;48.382;9.102;2023-10-08T18:29:54;12.93;;;4.23;;
30850;SDS011;17567;48.382;9.102;2023-10-08T18:34:55;18.03;;;4.77;;
30850;SDS011;17567;48.382;9.102;2023-10-08T18:39:55;12.57;;;3.93;;
30850;SDS011;17567;48.382;9.102;2023-10-08T18:44:56;15.67;;;4.23;;
30850;SDS011;17567;48.382;9.102;2023-10-08T18:50:00;14.43;;;4.07;;
30850;SDS011;17567;48.382;9.102;2023-10-08T18:55:01;17.73;;;4.60;;
30850;SDS011;17567;48.382;9.102;2023-10-08T19:00:06;21.57;;;5.47;;
30850;SDS011;17567;48.382;9.102;2023-10-08T19:05:10;26.67;;;6.97;;
30850;SDS011;17567;48.382;9.102;2023-10-08T19:10:11;21.63;;;4.20;;
30850;SDS011;17567;48.382;9.102;2023-10-08T19:15:15;21.33;;;4.63;;
30850;SDS011;17567;48.382;9.102;2023-10-08T19:20:16;19.70;;;4.90;;
30850;SDS011;17567;48.382;9.102;2023-10-08T19:25:17;23.77;;;4.33;;
30850;SDS011;17567;48.382;9.102;2023-10-08T19:30:18;24.60;;;5.50;;
30850;SDS011;17567;48.382;9.102;2023-10-08T19:35:19;26.13;;;4.83;;
30850;SDS011;17567;48.382;9.102;2023-10-08T19:40:21;22.57;;;4.67;;
30850;SDS011;17567;48.382;9.102;2023-10-08T19:45:22;17.43;;;4.80;;
30850;SDS011;17567;48.382;9.102;2023-10-08T19:50:23;18.27;;;4.57;;
30850;SDS011;17567;48.382;9.102;2023-10-08T19:55:24;22.60;;;5.13;;
30850;SDS011;17567;48.382;9.102;2023-10-08T20:00:26;25.03;;;5.33;;
30850;SDS011;17567;48.382;9.102;2023-10-08T20:05:27;20.07;;;4.77;;
30850;SDS011;17567;48.382;9.102;2023-10-08T20:10:28;24.60;;;4.67;;
30850;SDS011;17567;48.382;9.102;2023-10-08T20:15:30;17.00;;;3.87;;
30850;SDS011;17567;48.382;9.102;2023-10-08T20:20:31;17.60;;;4.30;;
30850;SDS011;17567;48.382;9.102;2023-10-08T20:25:34;19.10;;;4.70;;
30850;SDS011;17567;48.382;9.102;2023-10-08T20:30:41;21.13;;;5.67;;
30850;SDS011;17567;48.382;9.102;2023-10-08T20:35:43;16.70;;;4.80;;
30850;SDS011;17567;48.382;9.102;2023-10-08T20:40:44;26.13;;;5.33;;
30850;SDS011;17567;48.382;9.102;2023-10-08T20:45:45;18.40;;;4.30;;
30850;SDS011;17567;48.382;9.102;2023-10-08T20:50:46;24.93;;;5.70;;
30850;SDS011;17567;48.382;9.102;2023-10-08T20:55:47;25.20;;;5.73;;
30850;SDS011;17567;48.382;9.102;2023-10-08T21:00:47;25.37;;;5.03;;
30850;SDS011;17567;48.382;9.102;2023-10-08T21:05:49;29.37;;;5.40;;
30850;SDS011;17567;48.382;9.102;2023-10-08T21:10:50;27.23;;;5.63;;
30850;SDS011;17567;48.382;9.102;2023-10-08T21:15:52;22.83;;;4.43;;
30850;SDS011;17567;48.382;9.102;2023-10-08T21:20:55;29.13;;;5.40;;
30850;SDS011;17567;48.382;9.102;2023-10-08T21:25:56;25.37;;;5.40;;
30850;SDS011;17567;48.382;9.102;2023-10-08T21:30:57;26.17;;;5.40;;
30850;SDS011;17567;48.382;9.102;2023-10-08T21:36:09;29.20;;;5.67;;
30850;SDS011;17567;48.382;9.102;2023-10-08T21:41:11;44.17;;;6.40;;
30850;SDS011;17567;48.382;9.102;2023-10-08T21:46:12;29.27;;;6.20;;
30850;SDS011;17567;48.382;9.102;2023-10-08T21:51:13;31.90;;;5.27;;
30850;SDS011;17567;48.382;9.102;2023-10-08T21:56:14;22.03;;;5.83;;
30850;SDS011;17567;48.382;9.102;2023-10-08T22:01:15;28.60;;;5.70;;
30850;SDS011;17567;48.382;9.102;2023-10-08T22:06:23;42.87;;;7.07;;
30850;SDS011;17567;48.382;9.102;2023-10-08T22:11:27;39.83;;;6.17;;
30850;SDS011;17567;48.382;9.102;2023-10-08T22:16:29;33.43;;;5.90;;
30850;SDS011;17567;48.382;9.102;2023-10-08T22:21:32;34.30;;;6.33;;
30850;SDS011;17567;48.382;9.102;2023-10-08T22:26:35;28.30;;;5.27;;
30850;SDS011;17567;48.382;9.102;2023-10-08T22:31:45;39.23;;;6.47;;
30850;SDS011;17567;48.382;9.102;2023-10-08T22:36:49;37.97;;;5.80;;
30850;SDS011;17567;48.382;9.102;2023-10-08T22:42:18;29.67;;;5.80;;
30850;SDS011;17567;48.382;9.102;2023-10-08T22:47:23;41.40;;;6.83;;
30850;SDS011;17567;48.382;9.102;2023-10-08T22:52:28;39.93;;;6.67;;
30850;SDS011;17567;48.382;9.102;2023-10-08T22:57:31;28.70;;;5.50;;
30850;SDS011;17567;48.382;9.102;2023-10-08T23:02:32;36.83;;;6.13;;
30850;SDS011;17567;48.382;9.102;2023-10-08T23:07:33;37.40;;;5.67;;
30850;SDS011;17567;48.382;9.102;2023-10-08T23:12:35;29.17;;;6.37;;
30850;SDS011;17567;48.382;9.102;2023-10-08T23:17:36;34.13;;;6.57;;
30850;SDS011;17567;48.382;9.102;2023-10-08T23:22:37;41.23;;;5.93;;
30850;SDS011;17567;48.382;9.102;2023-10-08T23:27:38;34.20;;;6.63;;
30850;SDS011;17567;48.382;9.102;2023-10-08T23:32:39;36.97;;;6.13;;
30850;SDS011;17567;48.382;9.102;2023-10-08T23:37:45;37.40;;;6.27;;
30850;SDS011;17567;48.382;9.102;2023-10-08T23:42:53;31.20;;;6.57;;
30850;SDS011;17567;48.382;9.102;2023-10-08T23:47:57;41.53;;;6.10;;
30850;SDS011;17567;48.382;9.102;2023-10-08T23:53:18;35.23;;;7.10;;
30850;SDS011;17567;48.382;9.102;2023-10-08T23:58:29;28.87;;;5.60;;
